Time;durP1;ratioP1;P1;durP2;ratioP2;P2;SDS_P1;SDS_P2;PMS_P1;PMS_P2;Temp;Humidity;BMP_temperature;BMP_pressure;BME280_temperature;BME280_humidity;BME280_pressure;Samples;Min_cycle;Max_cycle;Signal;HPM_P1;HPM_P2
2021/10/14 00:00:39;;;;;;;18.92;10.70;;;;;;;8.87;88.04;99704.84;4804868;29;20138;-77
2021/10/14 00:03:05;;;;;;;12.85;9.93;;;;;;;8.84;87.73;99705.00;4804630;29;20188;-75
2021/10/14 00:05:32;;;;;;;9.00;8.10;;;;;;;8.77;88.20;99695.81;4804803;29;20054;-75
2021/10/14 00:07:58;;;;;;;12.57;9.95;;;;;;;8.75;88.34;99691.59;4804544;29;20062;-77
2021/10/14 00:10:24;;;;;;;16.10;10.02;;;;;;;8.73;88.59;99698.66;4804789;29;20062;-77
2021/10/14 00:12:50;;;;;;;27.67;11.60;;;;;;;8.68;88.89;99695.44;4804087;29;20059;-75
2021/10/14 00:15:16;;;;;;;14.30;9.70;;;;;;;8.66;88.43;99695.53;4803376;29;20430;-77
2021/10/14 00:17:41;;;;;;;9.73;8.77;;;;;;;8.65;88.80;99693.81;4809242;29;20059;-77
2021/10/14 00:20:08;;;;;;;9.15;8.40;;;;;;;8.67;88.76;99691.16;4803412;29;20055;-78
2021/10/14 00:22:34;;;;;;;8.20;7.38;;;;;;;8.67;88.72;99691.16;4814802;29;20058;-78
2021/10/14 00:25:00;;;;;;;22.08;8.65;;;;;;;8.68;88.67;99687.63;4806210;29;20112;-78
2021/10/14 00:27:26;;;;;;;8.48;7.68;;;;;;;8.72;88.45;99686.56;4810427;29;20107;-77
2021/10/14 00:29:52;;;;;;;10.50;7.80;;;;;;;8.70;88.27;99685.81;4802984;29;20050;-77
2021/10/14 00:32:18;;;;;;;12.02;10.68;;;;;;;8.70;88.31;99680.59;4804253;29;20063;-77
2021/10/14 00:34:44;;;;;;;8.95;6.75;;;;;;;8.61;88.31;99675.81;4787735;29;20077;-76
2021/10/14 00:37:10;;;;;;;8.57;7.78;;;;;;;8.61;88.95;99675.81;4806722;29;20402;-78
2021/10/14 00:39:36;;;;;;;10.35;7.43;;;;;;;8.63;88.22;99679.22;4805657;29;20142;-77
2021/10/14 00:42:02;;;;;;;9.80;9.00;;;;;;;8.63;88.50;99674.84;4822181;29;20471;-79
2021/10/14 00:44:40;;;;;;;7.18;6.22;;;;;;;8.66;88.51;99676.47;4806134;29;20057;-77
2021/10/14 00:47:06;;;;;;;8.30;7.47;;;;;;;8.65;88.82;99672.16;4792542;29;20058;-76
2021/10/14 00:49:32;;;;;;;5.95;5.13;;;;;;;8.61;88.53;99665.41;4822359;29;20186;-75
2021/10/14 00:51:58;;;;;;;7.72;6.95;;;;;;;8.60;88.69;99666.34;4821046;29;20061;-76
2021/10/14 00:54:24;;;;;;;8.57;7.68;;;;;;;8.56;88.96;99657.84;4792211;29;20137;-76
2021/10/14 00:56:50;;;;;;;9.57;8.52;;;;;;;8.51;88.70;99649.44;4839889;29;20054;-77
2021/10/14 00:59:16;;;;;;;8.90;8.05;;;;;;;8.50;88.75;99652.97;4840302;29;20050;-77
2021/10/14 01:01:42;;;;;;;7.63;6.93;;;;;;;8.50;88.59;99658.16;4812781;29;20046;-77
2021/10/14 01:04:08;;;;;;;7.05;6.43;;;;;;;8.45;88.85;99659.28;4804541;29;20059;-77
2021/10/14 01:06:34;;;;;;;10.02;9.13;;;;;;;8.42;88.80;99647.28;4804239;29;20104;-77
2021/10/14 01:09:00;;;;;;;12.25;8.75;;;;;;;8.36;88.84;99635.44;4803948;29;20050;-77
2021/10/14 01:11:26;;;;;;;14.57;7.10;;;;;;;8.38;88.94;99655.34;4808808;29;20069;-77
2021/10/14 01:13:52;;;;;;;7.43;6.80;;;;;;;8.35;89.02;99646.75;4802662;29;20119;-78
2021/10/14 01:16:18;;;;;;;8.23;7.38;;;;;;;8.33;89.20;99646.00;4803721;29;20472;-77
2021/10/14 01:18:44;;;;;;;7.72;6.75;;;;;;;8.27;89.22;99641.06;4801793;29;20094;-77
2021/10/14 01:21:10;;;;;;;8.85;6.20;;;;;;;8.25;89.37;99648.06;4803454;29;20090;-76
2021/10/14 01:23:36;;;;;;;10.30;7.97;;;;;;;8.27;89.48;99638.47;4802023;29;20137;-76
2021/10/14 01:26:02;;;;;;;7.13;5.63;;;;;;;8.21;89.08;99643.13;4803345;29;20061;-76
2021/10/14 01:28:28;;;;;;;6.03;5.53;;;;;;;8.21;89.11;99640.53;4803230;29;20103;-77
2021/10/14 01:30:54;;;;;;;7.07;6.43;;;;;;;8.14;89.18;99634.78;4802935;29;20089;-77
2021/10/14 01:33:20;;;;;;;15.30;9.85;;;;;;;8.13;89.06;99640.88;4814655;29;20049;-78
2021/10/14 01:35:46;;;;;;;7.65;6.15;;;;;;;8.12;89.00;99647.00;4821168;29;20059;-78
2021/10/14 01:38:12;;;;;;;6.57;6.00;;;;;;;8.07;89.08;99648.13;4821316;29;20051;-78
2021/10/14 01:40:38;;;;;;;5.53;5.13;;;;;;;8.03;89.24;99651.78;4805969;29;20058;-78
2021/10/14 01:43:04;;;;;;;6.95;6.50;;;;;;;8.00;89.27;99652.78;4801818;29;20077;-78
2021/10/14 01:45:30;;;;;;;6.03;5.63;;;;;;;7.97;89.24;99647.72;4802023;29;20521;-78
2021/10/14 01:47:56;;;;;;;8.73;7.22;;;;;;;7.91;89.49;99647.19;4801623;29;20139;-78
2021/10/14 01:50:21;;;;;;;8.25;5.75;;;;;;;7.88;89.71;99647.31;4801903;29;20058;-77
2021/10/14 01:52:47;;;;;;;6.25;5.80;;;;;;;7.84;89.69;99646.63;4802708;29;20546;-77
2021/10/14 01:55:13;;;;;;;7.50;6.20;;;;;;;7.80;89.83;99651.13;4802880;29;20063;-77
2021/10/14 01:57:39;;;;;;;7.15;5.75;;;;;;;7.77;89.61;99647.81;4801281;29;20074;-77
2021/10/14 02:00:07;;;;;;;7.25;6.75;;;;;;;7.76;90.03;99651.31;4803104;29;20133;-75
2021/10/14 02:02:37;;;;;;;6.10;5.57;;;;;;;7.72;89.98;99644.63;4803222;29;20086;-75
2021/10/14 02:05:03;;;;;;;7.25;6.43;;;;;;;7.73;89.91;99648.88;4802657;29;20061;-79
2021/10/14 02:07:30;;;;;;;6.18;5.75;;;;;;;7.70;89.87;99630.81;4802753;29;20051;-78
2021/10/14 02:09:56;;;;;;;7.18;6.65;;;;;;;7.77;89.86;99645.22;4802599;29;20580;-78
2021/10/14 02:12:21;;;;;;;13.73;7.53;;;;;;;7.74;89.81;99643.63;4801267;29;20054;-77
2021/10/14 02:14:47;;;;;;;7.18;6.57;;;;;;;7.72;89.94;99648.03;4802549;29;20061;-77
2021/10/14 02:17:13;;;;;;;6.95;6.28;;;;;;;7.68;89.83;99645.66;4802558;29;20096;-77
2021/10/14 02:19:39;;;;;;;7.35;5.80;;;;;;;7.70;89.58;99649.88;4816665;29;20133;-78
2021/10/14 02:22:06;;;;;;;18.25;6.82;;;;;;;7.70;89.73;99638.63;4786397;29;20046;-77
2021/10/14 02:24:31;;;;;;;9.95;7.63;;;;;;;7.74;89.44;99640.16;4801962;29;20427;-78
2021/10/14 02:26:57;;;;;;;6.57;6.07;;;;;;;7.74;89.31;99637.56;4800755;29;20051;-78
2021/10/14 02:29:23;;;;;;;7.65;6.88;;;;;;;7.75;88.84;99619.34;4802567;29;20081;-77
2021/10/14 02:31:49;;;;;;;6.03;5.50;;;;;;;7.66;89.12;99617.13;4802189;29;20046;-77
2021/10/14 02:34:15;;;;;;;10.63;7.32;;;;;;;7.71;88.75;99615.19;4816295;29;20437;-77
2021/10/14 02:36:41;;;;;;;7.93;6.60;;;;;;;7.72;88.49;99626.41;4801005;29;20055;-78
2021/10/14 02:39:07;;;;;;;6.20;5.80;;;;;;;7.72;88.32;99621.22;4801275;29;20059;-76
2021/10/14 02:41:33;;;;;;;8.25;5.10;;;;;;;7.70;88.74;99623.03;4800887;29;20059;-77
2021/10/14 02:43:59;;;;;;;23.65;6.85;;;;;;;7.68;88.40;99622.28;4802100;29;20128;-76
2021/10/14 02:46:25;;;;;;;6.88;6.28;;;;;;;7.67;88.43;99631.81;4801314;29;20419;-74
2021/10/14 02:48:51;;;;;;;9.45;7.55;;;;;;;7.67;88.31;99638.75;4802079;29;20073;-74
2021/10/14 02:51:17;;;;;;;6.20;5.80;;;;;;;7.67;88.31;99641.38;4802451;29;20150;-75
2021/10/14 02:53:43;;;;;;;5.75;5.35;;;;;;;7.63;88.36;99635.47;4802027;29;20063;-77
2021/10/14 02:56:09;;;;;;;6.45;5.65;;;;;;;7.66;87.77;99637.91;4801421;29;20114;-77
2021/10/14 02:58:35;;;;;;;7.00;6.07;;;;;;;7.66;87.63;99635.31;4816079;29;20059;-77
2021/10/14 03:01:01;;;;;;;6.28;5.80;;;;;;;7.70;87.42;99643.81;4801985;29;20062;-75
2021/10/14 03:03:27;;;;;;;5.85;5.45;;;;;;;7.70;86.85;99636.03;4800939;29;20054;-76
2021/10/14 03:05:53;;;;;;;5.15;4.75;;;;;;;7.73;86.40;99638.47;4785789;29;20196;-76
2021/10/14 03:08:19;;;;;;;4.60;4.20;;;;;;;7.75;86.00;99634.06;4802194;29;20090;-77
2021/10/14 03:10:45;;;;;;;8.98;6.18;;;;;;;7.75;85.66;99631.47;4801716;29;20480;-77
2021/10/14 03:13:11;;;;;;;7.22;5.28;;;;;;;7.75;85.10;99626.28;4802023;29;20208;-76
2021/10/14 03:15:37;;;;;;;8.70;5.53;;;;;;;7.78;84.83;99629.56;4802073;29;20119;-76
2021/10/14 03:18:03;;;;;;;6.20;5.65;;;;;;;7.82;83.99;99622.44;4801918;29;20510;-76
2021/10/14 03:20:29;;;;;;;5.35;4.95;;;;;;;7.84;83.58;99620.63;4786291;29;20055;-75
2021/10/14 03:22:55;;;;;;;4.63;4.22;;;;;;;7.85;83.27;99617.13;4801646;29;20062;-76
2021/10/14 03:25:21;;;;;;;5.65;5.28;;;;;;;7.82;82.95;99604.25;4802192;29;20059;-76
2021/10/14 03:27:47;;;;;;;4.80;4.50;;;;;;;7.90;81.86;99604.75;4801814;29;20058;-77
2021/10/14 03:30:13;;;;;;;11.25;4.75;;;;;;;7.97;81.52;99607.91;4800748;29;20101;-76
2021/10/14 03:32:39;;;;;;;4.40;4.03;;;;;;;7.97;80.67;99605.28;4802082;29;20514;-77
2021/10/14 03:35:06;;;;;;;9.38;5.38;;;;;;;7.95;81.19;99600.16;4801413;29;20070;-77
2021/10/14 03:37:32;;;;;;;6.47;5.03;;;;;;;7.91;80.92;99601.25;4787818;29;20047;-77
2021/10/14 03:39:57;;;;;;;4.40;4.07;;;;;;;7.99;80.83;99595.66;4804986;29;20051;-77
2021/10/14 03:42:24;;;;;;;11.73;3.95;;;;;;;7.96;80.67;99593.22;4789082;29;20058;-77
2021/10/14 03:44:49;;;;;;;4.65;4.07;;;;;;;7.90;80.79;99596.94;4788702;29;20057;-76
2021/10/14 03:47:16;;;;;;;5.00;4.60;;;;;;;7.91;80.49;99590.00;4806342;29;20055;-76
2021/10/14 03:49:41;;;;;;;4.70;4.40;;;;;;;7.93;80.27;99594.19;4807798;29;20120;-79
2021/10/14 03:52:08;;;;;;;3.22;2.92;;;;;;;7.84;80.61;99573.88;4789276;29;20518;-79
2021/10/14 03:54:33;;;;;;;6.65;6.05;;;;;;;7.94;79.95;99595.91;4804112;29;20517;-78
2021/10/14 03:57:00;;;;;;;13.25;4.35;;;;;;;7.98;79.67;99592.25;4804502;29;20100;-78
2021/10/14 03:59:25;;;;;;;3.30;3.10;;;;;;;8.06;78.74;99589.25;4804233;29;20123;-80
2021/10/14 04:01:51;;;;;;;3.63;3.42;;;;;;;8.07;78.04;99578.78;4788759;29;20124;-81
2021/10/14 04:04:17;;;;;;;4.28;4.07;;;;;;;8.09;78.34;99558.75;4790013;29;20502;-79
2021/10/14 04:06:43;;;;;;;4.18;3.95;;;;;;;8.11;78.36;99569.09;4805605;29;20147;-78
2021/10/14 04:09:09;;;;;;;6.75;4.63;;;;;;;8.12;78.21;99563.78;4803420;29;20058;-78
2021/10/14 04:11:35;;;;;;;3.55;3.38;;;;;;;8.16;77.38;99569.69;4796597;29;20088;-80
2021/10/14 04:14:01;;;;;;;4.85;4.30;;;;;;;8.10;78.21;99557.00;4823433;29;20050;-77
2021/10/14 04:16:27;;;;;;;15.15;3.95;;;;;;;8.16;77.45;99557.53;4822388;29;20065;-79
2021/10/14 04:18:53;;;;;;;6.10;4.05;;;;;;;8.16;78.28;99552.31;4806225;29;20057;-80
2021/10/14 04:21:19;;;;;;;10.77;5.97;;;;;;;8.13;78.40;99547.28;4821754;29;20122;-78
2021/10/14 04:23:45;;;;;;;4.05;3.75;;;;;;;8.13;77.46;99543.84;4824060;29;20061;-78
2021/10/14 04:26:11;;;;;;;3.42;3.30;;;;;;;8.10;77.73;99534.44;4828717;29;20154;-77
2021/10/14 04:28:37;;;;;;;3.58;3.35;;;;;;;8.09;78.01;99537.09;4839005;29;20054;-76
2021/10/14 04:31:04;;;;;;;3.65;3.45;;;;;;;8.07;77.79;99529.41;4838923;29;20564;-77
2021/10/14 04:33:30;;;;;;;4.15;3.75;;;;;;;7.99;78.57;99528.91;4826029;29;20514;-78
2021/10/14 04:35:59;;;;;;;4.82;4.45;;;;;;;8.01;78.64;99527.09;4823249;29;20133;-79
2021/10/14 04:38:25;;;;;;;3.78;3.58;;;;;;;7.99;79.02;99536.72;4808754;29;20058;-77
2021/10/14 04:40:51;;;;;;;7.50;3.40;;;;;;;7.97;79.38;99530.78;4822470;29;20111;-78
2021/10/14 04:43:17;;;;;;;3.38;3.20;;;;;;;7.96;78.77;99526.47;4806038;29;20050;-78
2021/10/14 04:45:44;;;;;;;9.48;4.40;;;;;;;7.95;79.23;99527.38;4822629;29;20509;-79
2021/10/14 04:48:10;;;;;;;7.25;6.07;;;;;;;7.97;78.39;99533.38;4821516;29;20058;-79
2021/10/14 04:50:36;;;;;;;4.55;3.53;;;;;;;7.93;80.08;99518.00;4822255;29;20498;-78
2021/10/14 04:53:02;;;;;;;2.60;2.50;;;;;;;7.93;78.79;99518.84;4821972;29;20118;-79
2021/10/14 04:55:28;;;;;;;3.72;3.28;;;;;;;7.90;79.15;99519.00;4822113;29;20077;-78
2021/10/14 04:57:54;;;;;;;3.67;3.40;;;;;;;7.89;78.02;99514.69;4821861;29;20509;-78
2021/10/14 05:00:20;;;;;;;5.00;3.55;;;;;;;7.99;78.09;99523.72;4806495;29;20054;-79
2021/10/14 05:02:46;;;;;;;18.75;4.40;;;;;;;7.96;78.54;99510.88;4791140;29;20046;-79
2021/10/14 05:05:12;;;;;;;3.95;3.65;;;;;;;7.94;78.41;99525.72;4805716;29;20054;-80
2021/10/14 05:07:38;;;;;;;2.75;2.65;;;;;;;8.05;76.86;99539.00;4805829;29;20059;-79
2021/10/14 05:10:04;;;;;;;10.45;3.50;;;;;;;8.11;76.59;99532.69;4821916;29;20062;-80
2021/10/14 05:12:30;;;;;;;5.32;4.93;;;;;;;8.16;77.11;99541.09;4810215;29;20482;-80
2021/10/14 05:14:56;;;;;;;4.53;4.22;;;;;;;8.18;76.92;99540.09;4787963;29;20066;-80
2021/10/14 05:17:21;;;;;;;4.18;3.85;;;;;;;8.16;77.08;99531.53;4802940;29;20082;-79
2021/10/14 05:19:47;;;;;;;3.65;3.42;;;;;;;8.22;75.51;99532.97;4803559;29;20057;-78
2021/10/14 05:22:14;;;;;;;4.00;3.70;;;;;;;8.17;76.20;99520.22;4787448;29;20051;-76
2021/10/14 05:24:40;;;;;;;2.70;2.60;;;;;;;8.18;74.96;99515.88;4803517;29;20081;-78
2021/10/14 05:27:06;;;;;;;3.47;3.08;;;;;;;8.17;75.12;99504.63;4802918;29;20170;-77
2021/10/14 05:29:32;;;;;;;4.53;3.40;;;;;;;8.19;74.80;99497.56;4803376;29;20058;-76
2021/10/14 05:31:58;;;;;;;5.32;4.28;;;;;;;8.19;74.59;99505.38;4786996;29;20514;-76
2021/10/14 05:34:24;;;;;;;3.70;3.10;;;;;;;8.21;73.61;99498.31;4803513;29;20119;-77
2021/10/14 05:36:50;;;;;;;1.70;1.70;;;;;;;8.23;74.14;99501.69;4803339;29;20101;-76
2021/10/14 05:39:16;;;;;;;3.10;2.97;;;;;;;8.27;73.00;99499.78;4802049;29;20062;-76
2021/10/14 05:41:42;;;;;;;3.75;3.55;;;;;;;8.33;73.45;99499.50;4801950;29;20149;-75
2021/10/14 05:44:08;;;;;;;4.88;4.38;;;;;;;8.30;74.49;99490.09;4802784;29;20450;-77
2021/10/14 05:46:34;;;;;;;5.28;3.42;;;;;;;8.31;72.57;99494.38;4803324;29;20124;-77
2021/10/14 05:49:00;;;;;;;9.25;1.90;;;;;;;8.32;72.58;99484.81;4803073;29;20051;-77
2021/10/14 05:51:26;;;;;;;2.97;2.47;;;;;;;8.40;72.91;99498.28;4787209;29;20062;-78
2021/10/14 05:53:52;;;;;;;4.82;2.55;;;;;;;8.49;72.50;99496.94;4771705;29;20065;-78
2021/10/14 05:56:18;;;;;;;1.50;1.50;;;;;;;8.50;70.80;99491.69;4802138;29;20051;-76
2021/10/14 05:58:44;;;;;;;2.80;2.70;;;;;;;8.55;71.24;99499.22;4786803;29;20441;-76
2021/10/14 06:01:10;;;;;;;3.90;2.75;;;;;;;8.58;69.54;99499.91;4803930;29;20112;-76
2021/10/14 06:03:36;;;;;;;4.20;3.80;;;;;;;8.61;69.21;99497.13;4804531;29;20078;-77
2021/10/14 06:06:02;;;;;;;5.45;2.33;;;;;;;8.62;69.52;99495.38;4800181;29;20042;-76
2021/10/14 06:08:28;;;;;;;5.18;2.53;;;;;;;8.71;69.40;99492.28;4803391;29;21727;-77
2021/10/14 06:10:54;;;;;;;3.42;3.17;;;;;;;8.75;68.63;99486.00;4810629;29;20053;-75
2021/10/14 06:13:20;;;;;;;9.48;3.85;;;;;;;8.72;69.15;99489.63;4820802;29;20056;-75
2021/10/14 06:15:46;;;;;;;3.67;3.38;;;;;;;8.70;68.29;99485.44;4804076;29;20066;-76
2021/10/14 06:18:12;;;;;;;2.97;2.35;;;;;;;8.77;68.31;99497.16;4820820;29;20054;-77
2021/10/14 06:20:38;;;;;;;3.67;2.63;;;;;;;8.87;68.35;99493.16;4803221;29;20061;-77
2021/10/14 06:23:06;;;;;;;2.60;2.42;;;;;;;8.74;68.94;99481.72;4821762;29;20053;-77
2021/10/14 06:25:32;;;;;;;4.93;2.30;;;;;;;8.81;69.13;99483.91;4808792;29;20054;-76
2021/10/14 06:27:58;;;;;;;8.32;2.45;;;;;;;8.76;68.19;99482.50;4819745;29;20430;-75
2021/10/14 06:30:24;;;;;;;3.20;3.00;;;;;;;8.81;68.50;99477.88;4803936;29;20050;-75
2021/10/14 06:32:50;;;;;;;21.13;2.97;;;;;;;8.89;67.53;99475.72;4820440;29;20413;-76
2021/10/14 06:35:16;;;;;;;3.25;2.33;;;;;;;8.86;68.29;99481.09;4819978;29;20141;-75
2021/10/14 06:37:42;;;;;;;2.22;2.13;;;;;;;8.91;68.02;99468.66;4803653;29;20496;-76
2021/10/14 06:40:09;;;;;;;2.28;2.17;;;;;;;8.94;66.86;99475.44;4819855;29;20114;-77
2021/10/14 06:42:34;;;;;;;2.75;2.65;;;;;;;8.84;67.00;99473.34;4803633;29;20058;-77
2021/10/14 06:45:00;;;;;;;1.92;1.92;;;;;;;8.81;67.12;99468.31;4773488;29;20544;-76
2021/10/14 06:47:26;;;;;;;3.25;3.05;;;;;;;8.87;65.49;99483.59;4803398;29;20062;-78
2021/10/14 06:49:52;;;;;;;3.60;3.28;;;;;;;8.93;66.81;99468.56;4788657;29;20054;-77
2021/10/14 06:52:18;;;;;;;2.17;2.08;;;;;;;8.85;66.84;99461.16;4819894;29;20111;-76
2021/10/14 06:54:45;;;;;;;2.47;2.33;;;;;;;8.91;66.14;99468.66;4815656;29;20058;-79
2021/10/14 06:57:11;;;;;;;5.90;3.80;;;;;;;8.86;66.31;99458.50;4808154;29;20054;-77
2021/10/14 06:59:37;;;;;;;4.20;3.35;;;;;;;8.90;66.59;99469.56;4806725;29;20513;-77
2021/10/14 07:02:03;;;;;;;9.93;3.33;;;;;;;8.89;66.75;99460.09;4802034;29;20058;-77
2021/10/14 07:04:30;;;;;;;2.80;2.65;;;;;;;8.83;65.71;99457.81;4803525;29;20051;-82
2021/10/14 07:06:56;;;;;;;1.85;1.75;;;;;;;8.78;66.45;99459.81;4803129;29;20429;-80
2021/10/14 07:09:22;;;;;;;3.40;3.20;;;;;;;8.85;65.62;99461.16;4820015;29;20054;-82
2021/10/14 07:11:52;;;;;;;2.63;2.38;;;;;;;8.79;65.73;99451.09;4830216;29;20148;-80
2021/10/14 07:14:19;;;;;;;6.80;3.50;;;;;;;8.84;65.28;99460.31;4823835;29;20050;-73
2021/10/14 07:16:46;;;;;;;3.58;3.30;;;;;;;8.82;66.53;99466.53;4800937;29;20058;-75
2021/10/14 07:19:12;;;;;;;9.65;4.25;;;;;;;8.77;66.40;99455.53;4822297;29;20046;-73
2021/10/14 07:21:37;;;;;;;3.38;3.17;;;;;;;8.79;65.37;99456.31;4788817;29;20107;-74
2021/10/14 07:24:04;;;;;;;2.67;2.47;;;;;;;8.84;65.05;99449.91;4840110;29;20058;-74
2021/10/14 07:26:30;;;;;;;13.27;2.85;;;;;;;8.88;65.28;99466.22;4841380;29;20530;-74
2021/10/14 07:28:57;;;;;;;6.85;3.08;;;;;;;8.90;65.29;99466.94;4825124;29;20156;-78
2021/10/14 07:31:24;;;;;;;2.75;2.53;;;;;;;8.89;64.58;99467.91;4842995;29;20420;-76
2021/10/14 07:33:55;;;;;;;4.00;3.70;;;;;;;8.88;65.02;99468.81;4823211;29;20054;-75
2021/10/14 07:36:32;;;;;;;3.38;3.17;;;;;;;8.93;64.88;99465.97;4826225;29;20136;-77
2021/10/14 07:38:58;;;;;;;2.05;1.95;;;;;;;8.85;64.24;99448.16;4791637;29;20056;-79
2021/10/14 07:41:24;;;;;;;3.28;2.20;;;;;;;8.88;64.35;99463.59;4822880;29;20057;-79
2021/10/14 07:43:50;;;;;;;5.43;4.25;;;;;;;8.87;64.39;99457.56;4816809;29;20062;-76
2021/10/14 07:46:16;;;;;;;9.13;3.08;;;;;;;8.88;65.08;99461.84;4817572;29;20050;-76
2021/10/14 07:48:43;;;;;;;3.88;3.65;;;;;;;8.87;64.34;99464.53;4823482;29;20050;-76
2021/10/14 07:51:09;;;;;;;5.57;3.08;;;;;;;8.86;64.88;99468.06;4828540;29;20055;-77
2021/10/14 07:53:35;;;;;;;13.40;3.58;;;;;;;8.82;64.34;99461.34;4814285;29;20061;-76
2021/10/14 07:56:00;;;;;;;22.52;2.22;;;;;;;8.82;65.36;99461.34;4811584;29;20053;-78
2021/10/14 07:58:26;;;;;;;2.70;2.58;;;;;;;8.84;65.72;99459.47;4823308;29;20054;-76
2021/10/14 08:00:52;;;;;;;7.38;2.85;;;;;;;8.86;65.88;99452.44;4822675;29;20061;-76
2021/10/14 08:03:19;;;;;;;29.42;3.05;;;;;;;8.85;65.38;99449.00;4822893;29;20051;-78
2021/10/14 08:05:45;;;;;;;3.47;2.60;;;;;;;8.87;65.91;99448.91;4822621;29;20050;-80
2021/10/14 08:08:12;;;;;;;3.28;3.08;;;;;;;8.89;66.24;99441.88;4806279;29;20083;-75
2021/10/14 08:10:38;;;;;;;3.42;3.22;;;;;;;8.90;65.64;99446.13;4822632;29;20053;-77
2021/10/14 08:13:04;;;;;;;3.78;3.55;;;;;;;8.97;66.49;99455.28;4840428;29;20516;-78
2021/10/14 08:15:30;;;;;;;14.95;5.82;;;;;;;8.99;65.20;99437.84;4840275;29;20081;-76
2021/10/14 08:17:57;;;;;;;3.25;3.08;;;;;;;9.13;63.67;99440.50;4840280;29;20050;-77
2021/10/14 08:20:23;;;;;;;6.90;3.65;;;;;;;9.18;63.37;99437.66;4794171;29;20145;-77
2021/10/14 08:22:49;;;;;;;9.77;2.78;;;;;;;9.29;63.58;99443.13;4819110;29;20487;-76
2021/10/14 08:25:15;;;;;;;3.28;3.08;;;;;;;9.28;64.68;99444.88;4826715;29;20053;-80
2021/10/14 08:27:42;;;;;;;3.15;2.95;;;;;;;9.42;63.16;99442.31;4840678;29;20144;-79
2021/10/14 08:30:09;;;;;;;3.75;3.20;;;;;;;9.42;63.48;99442.31;4832087;29;20467;-80
2021/10/14 08:32:36;;;;;;;3.88;3.13;;;;;;;9.53;64.39;99438.25;4821951;29;20115;-78
2021/10/14 08:35:02;;;;;;;12.02;3.70;;;;;;;9.55;63.45;99439.03;4824348;29;20058;-82
2021/10/14 08:37:29;;;;;;;4.97;3.22;;;;;;;9.33;64.08;99436.78;4833911;29;20062;-81
2021/10/14 08:39:56;;;;;;;4.22;3.63;;;;;;;9.51;63.66;99450.53;4834253;29;20099;-79
2021/10/14 08:42:22;;;;;;;3.33;3.08;;;;;;;9.38;63.38;99433.00;4824484;29;20054;-78
2021/10/14 08:44:48;;;;;;;2.55;2.45;;;;;;;9.32;63.99;99424.72;4823675;29;20513;-77
2021/10/14 08:47:15;;;;;;;2.85;2.70;;;;;;;9.40;64.18;99438.13;4837475;29;20053;-79
2021/10/14 08:49:45;;;;;;;2.58;2.45;;;;;;;9.45;64.78;99438.72;4845735;29;20088;-79
2021/10/14 08:52:13;;;;;;;5.15;4.53;;;;;;;9.32;64.86;99435.97;4838761;29;20472;-78
2021/10/14 08:54:40;;;;;;;12.77;3.08;;;;;;;9.44;65.08;99434.41;4836777;29;20335;-78
2021/10/14 08:57:06;;;;;;;4.97;2.83;;;;;;;9.38;64.35;99429.56;4819270;29;20572;-78
2021/10/14 08:59:32;;;;;;;14.15;3.08;;;;;;;9.40;63.37;99412.06;4839706;29;20058;-77
2021/10/14 09:02:10;;;;;;;26.33;3.83;;;;;;;9.51;64.87;99425.34;4835488;29;20054;-77
2021/10/14 09:04:39;;;;;;;6.18;4.55;;;;;;;9.56;65.37;99430.25;4836488;29;20125;-77
2021/10/14 09:07:12;;;;;;;3.03;2.83;;;;;;;9.34;65.43;99433.25;4812659;29;20129;-78
2021/10/14 09:09:38;;;;;;;8.25;3.35;;;;;;;9.14;65.03;99426.56;4831967;29;20049;-77
2021/10/14 09:12:05;;;;;;;2.08;1.98;;;;;;;9.18;66.31;99417.66;4828975;29;20124;-79
2021/10/14 09:14:31;;;;;;;6.07;3.58;;;;;;;9.07;66.51;99414.81;4804099;29;20123;-79
2021/10/14 09:16:57;;;;;;;13.60;3.85;;;;;;;9.10;67.77;99425.06;4804304;29;20210;-79
2021/10/14 09:19:25;;;;;;;4.47;4.18;;;;;;;9.09;65.55;99412.97;4818968;29;20058;-76
2021/10/14 09:21:58;;;;;;;2.70;2.60;;;;;;;9.04;66.34;99414.97;4804670;29;20061;-79
2021/10/14 09:24:32;;;;;;;4.30;3.92;;;;;;;8.97;66.83;99416.25;4820132;29;20138;-82
2021/10/14 09:27:10;;;;;;;7.13;5.43;;;;;;;9.05;69.19;99414.06;4818873;29;20077;-83
2021/10/14 09:29:38;;;;;;;6.18;4.53;;;;;;;9.09;68.80;99412.97;4777722;29;20623;-81
2021/10/14 09:32:05;;;;;;;6.85;6.28;;;;;;;9.00;70.76;99415.25;4820740;29;20062;-80
2021/10/14 09:34:31;;;;;;;3.25;3.05;;;;;;;8.94;70.38;99418.16;4785734;29;20144;-80
2021/10/14 09:37:16;;;;;;;3.50;3.30;;;;;;;8.87;71.22;99417.66;4838611;29;20050;-81
2021/10/14 09:39:54;;;;;;;14.50;4.32;;;;;;;8.76;71.78;99414.84;4838514;29;20046;-81
2021/10/14 09:42:53;;;;;;;3.88;3.28;;;;;;;8.73;72.99;99417.59;4824323;29;20058;-81
2021/10/14 09:45:25;;;;;;;3.40;3.17;;;;;;;8.61;72.61;99406.06;4803715;29;20046;-77
2021/10/14 09:48:12;;;;;;;6.57;3.08;;;;;;;8.63;73.35;99414.66;4820700;29;20067;-83
2021/10/14 09:50:42;;;;;;;5.90;4.97;;;;;;;8.53;72.31;99417.84;4823719;29;20061;-80
2021/10/14 09:53:13;;;;;;;3.75;3.55;;;;;;;8.35;72.28;99404.03;4837946;29;20136;-79
2021/10/14 09:55:39;;;;;;;6.43;4.93;;;;;;;8.24;75.89;99421.94;4838373;29;20053;-78
2021/10/14 09:58:05;;;;;;;4.63;4.22;;;;;;;8.05;76.15;99416.03;4822415;29;20060;-76
2021/10/14 10:00:32;;;;;;;4.63;4.00;;;;;;;7.93;77.28;99412.28;4821621;29;20057;-80
2021/10/14 10:03:01;;;;;;;4.97;3.25;;;;;;;7.96;78.06;99417.31;4821568;29;20054;-77
2021/10/14 10:05:31;;;;;;;4.00;2.58;;;;;;;7.91;76.67;99411.53;4804135;29;20050;-78
2021/10/14 10:07:58;;;;;;;8.45;3.72;;;;;;;7.80;78.95;99403.44;4812382;29;20179;-76
2021/10/14 10:10:25;;;;;;;3.10;2.70;;;;;;;7.70;79.33;99404.81;4757830;29;20055;-77
2021/10/14 10:12:51;;;;;;;9.75;3.53;;;;;;;7.73;80.36;99408.09;4816348;29;20059;-80
2021/10/14 10:15:36;;;;;;;1.95;1.85;;;;;;;7.69;78.76;99400.56;4822223;29;20058;-85
2021/10/14 10:18:02;;;;;;;2.97;2.78;;;;;;;7.67;81.17;99415.34;4824143;29;20127;-83
2021/10/14 10:20:36;;;;;;;3.28;3.08;;;;;;;7.63;80.25;99413.81;4837737;29;20058;-79
2021/10/14 10:23:02;;;;;;;11.95;3.95;;;;;;;7.69;80.71;99408.34;4836922;29;20547;-80
2021/10/14 10:25:35;;;;;;;4.25;3.95;;;;;;;7.65;78.34;99412.00;4838654;29;20140;-81
2021/10/14 10:28:03;;;;;;;3.35;2.78;;;;;;;7.69;79.58;99413.53;4824200;29;20050;-80
2021/10/14 10:30:31;;;;;;;5.43;4.10;;;;;;;7.70;80.67;99404.81;4804813;29;20110;-80
2021/10/14 10:32:58;;;;;;;9.05;2.80;;;;;;;7.70;78.25;99405.66;4812572;29;20058;-85
2021/10/14 10:35:51;;;;;;;11.73;4.25;;;;;;;7.68;79.49;99401.47;4813262;29;20050;-81
2021/10/14 10:38:25;;;;;;;22.48;3.47;;;;;;;7.65;80.60;99406.81;4808643;29;20082;-85
2021/10/14 10:40:52;;;;;;;5.45;3.67;;;;;;;7.65;80.72;99396.41;4824469;29;20054;-81
2021/10/14 10:43:29;;;;;;;5.10;4.75;;;;;;;7.68;79.69;99401.47;4818509;29;20081;-85
2021/10/14 10:46:06;;;;;;;7.07;4.65;;;;;;;7.64;79.71;99392.13;4807279;29;20082;-84
2021/10/14 10:48:37;;;;;;;3.22;3.03;;;;;;;7.66;80.79;99387.69;4807619;29;20518;-82
2021/10/14 10:51:04;;;;;;;;;;;;;;;7.69;79.48;99387.56;4812603;29;20050;-83
2021/10/14 10:53:42;;;;;;;2.80;2.63;;;;;;;7.73;79.75;99378.66;4805801;29;19947;-82
2021/10/14 10:56:29;;;;;;;2.40;2.30;;;;;;;7.70;80.32;99391.81;4812489;29;20049;-77
2021/10/14 10:58:56;;;;;;;4.07;3.67;;;;;;;7.79;81.12;99391.34;4794657;29;20082;-81
2021/10/14 11:01:22;;;;;;;5.88;5.35;;;;;;;7.69;80.10;99387.56;4815043;29;20054;-81
2021/10/14 11:03:56;;;;;;;8.15;3.58;;;;;;;7.70;78.91;99369.28;4831972;29;20047;-84
2021/10/14 11:06:22;;;;;;;3.90;3.47;;;;;;;7.79;79.64;99384.41;4828046;29;20532;-82
2021/10/14 11:08:52;;;;;;;10.45;5.22;;;;;;;7.73;79.74;99389.06;4829886;29;20528;-83
2021/10/14 11:11:21;;;;;;;13.65;5.60;;;;;;;7.67;78.67;99381.59;4801887;29;20069;-83
2021/10/14 11:13:51;;;;;;;0.85;0.85;;;;;;;7.71;79.19;99381.38;4845435;29;20068;-82
2021/10/14 11:16:18;;;;;;;5.20;4.80;;;;;;;7.79;79.49;99388.75;4827042;29;20057;-79
2021/10/14 11:18:45;;;;;;;16.58;3.65;;;;;;;7.76;79.64;99384.56;4810879;29;20050;-81
2021/10/14 11:21:14;;;;;;;5.05;2.72;;;;;;;7.79;79.06;99371.41;4822573;29;20050;-80
2021/10/14 11:23:44;;;;;;;3.53;3.38;;;;;;;7.66;79.39;99382.50;4785621;29;20061;-79
2021/10/14 11:26:42;;;;;;;5.07;3.70;;;;;;;7.67;78.96;99379.00;4823780;29;20100;-82
2021/10/14 11:29:18;;;;;;;0.60;0.60;;;;;;;7.59;80.24;99370.75;4806283;29;20046;-83
2021/10/14 11:31:58;;;;;;;7.57;5.30;;;;;;;7.57;79.88;99383.81;4809776;29;20054;-82
2021/10/14 11:34:26;;;;;;;12.05;5.10;;;;;;;7.52;80.22;99374.56;4807660;29;20134;-78
2021/10/14 11:37:02;;;;;;;9.02;3.80;;;;;;;7.48;80.44;99368.69;4823272;29;20141;-82
2021/10/14 11:39:34;;;;;;;7.35;3.65;;;;;;;7.45;81.08;99381.00;4822879;29;20062;-81
2021/10/14 11:42:01;;;;;;;4.78;2.47;;;;;;;7.42;80.89;99368.16;4824532;29;20540;-82